sensor_id;sensor_type;location;lat;lon;timestamp;temperature;humidity
20726;DHT22;10524;48.132;8.518;2023-06-22T00:00:51;16.20;99.90
20726;DHT22;10524;48.132;8.518;2023-06-22T00:03:19;16.30;99.90
20726;DHT22;10524;48.132;8.518;2023-06-22T00:05:46;16.20;99.90
20726;DHT22;10524;48.132;8.518;2023-06-22T00:08:12;16.20;99.90
20726;DHT22;10524;48.132;8.518;2023-06-22T00:10:37;16.10;99.90
20726;DHT22;10524;48.132;8.518;2023-06-22T00:13:03;16.10;99.90
20726;DHT22;10524;48.132;8.518;2023-06-22T00:15:29;16.00;99.90
20726;DHT22;10524;48.132;8.518;2023-06-22T00:17:55;16.00;99.90
20726;DHT22;10524;48.132;8.518;2023-06-22T00:20:22;16.00;99.90
20726;DHT22;10524;48.132;8.518;2023-06-22T00:22:49;16.00;99.90
20726;DHT22;10524;48.132;8.518;2023-06-22T00:25:15;15.90;99.90
20726;DHT22;10524;48.132;8.518;2023-06-22T00:27:41;15.90;99.90
20726;DHT22;10524;48.132;8.518;2023-06-22T00:30:07;15.90;99.90
20726;DHT22;10524;48.132;8.518;2023-06-22T00:32:32;15.80;99.90
20726;DHT22;10524;48.132;8.518;2023-06-22T00:34:58;15.80;99.90
20726;DHT22;10524;48.132;8.518;2023-06-22T00:37:24;15.80;99.90
20726;DHT22;10524;48.132;8.518;2023-06-22T00:39:51;15.70;99.90
20726;DHT22;10524;48.132;8.518;2023-06-22T00:42:17;15.70;99.90
20726;DHT22;10524;48.132;8.518;2023-06-22T00:44:43;15.70;99.90
20726;DHT22;10524;48.132;8.518;2023-06-22T00:47:11;15.70;99.90
20726;DHT22;10524;48.132;8.518;2023-06-22T00:49:38;15.80;99.90
20726;DHT22;10524;48.132;8.518;2023-06-22T00:52:06;15.80;99.90
20726;DHT22;10524;48.132;8.518;2023-06-22T00:54:35;15.80;99.90
20726;DHT22;10524;48.132;8.518;2023-06-22T00:57:02;15.70;99.90
20726;DHT22;10524;48.132;8.518;2023-06-22T00:59:27;15.60;99.90
20726;DHT22;10524;48.132;8.518;2023-06-22T01:01:54;15.60;99.90
20726;DHT22;10524;48.132;8.518;2023-06-22T01:04:24;15.60;99.90
20726;DHT22;10524;48.132;8.518;2023-06-22T01:07:03;15.50;99.90
20726;DHT22;10524;48.132;8.518;2023-06-22T01:09:35;15.50;99.90
20726;DHT22;10524;48.132;8.518;2023-06-22T01:12:07;15.50;99.90
20726;DHT22;10524;48.132;8.518;2023-06-22T01:14:49;15.50;99.90
20726;DHT22;10524;48.132;8.518;2023-06-22T01:17:19;15.50;99.90
20726;DHT22;10524;48.132;8.518;2023-06-22T01:19:48;15.50;99.90
20726;DHT22;10524;48.132;8.518;2023-06-22T01:22:24;15.50;99.90
20726;DHT22;10524;48.132;8.518;2023-06-22T01:30:30;15.40;99.90
20726;DHT22;10524;48.132;8.518;2023-06-22T01:32:57;15.30;99.90
20726;DHT22;10524;48.132;8.518;2023-06-22T01:35:24;15.30;99.90
20726;DHT22;10524;48.132;8.518;2023-06-22T01:37:50;15.20;99.90
20726;DHT22;10524;48.132;8.518;2023-06-22T01:40:16;15.20;99.90
20726;DHT22;10524;48.132;8.518;2023-06-22T01:42:43;15.20;99.90
20726;DHT22;10524;48.132;8.518;2023-06-22T01:45:10;15.20;99.90
20726;DHT22;10524;48.132;8.518;2023-06-22T01:47:36;15.10;99.90
20726;DHT22;10524;48.132;8.518;2023-06-22T01:50:03;15.10;99.90
20726;DHT22;10524;48.132;8.518;2023-06-22T01:52:29;15.20;99.90
20726;DHT22;10524;48.132;8.518;2023-06-22T01:54:55;15.20;99.90
20726;DHT22;10524;48.132;8.518;2023-06-22T01:57:23;15.30;99.90
20726;DHT22;10524;48.132;8.518;2023-06-22T02:02:22;15.40;99.90
20726;DHT22;10524;48.132;8.518;2023-06-22T02:04:59;15.40;99.90
20726;DHT22;10524;48.132;8.518;2023-06-22T02:07:29;15.40;99.90
20726;DHT22;10524;48.132;8.518;2023-06-22T02:09:59;15.40;99.90
20726;DHT22;10524;48.132;8.518;2023-06-22T02:12:26;15.40;99.90
20726;DHT22;10524;48.132;8.518;2023-06-22T02:14:53;15.40;99.90
20726;DHT22;10524;48.132;8.518;2023-06-22T02:17:20;15.30;99.90
20726;DHT22;10524;48.132;8.518;2023-06-22T02:19:46;15.20;99.90
20726;DHT22;10524;48.132;8.518;2023-06-22T02:22:11;15.10;99.90
20726;DHT22;10524;48.132;8.518;2023-06-22T02:24:40;15.00;99.90
20726;DHT22;10524;48.132;8.518;2023-06-22T02:27:07;14.90;99.90
20726;DHT22;10524;48.132;8.518;2023-06-22T02:29:33;14.80;99.90
20726;DHT22;10524;48.132;8.518;2023-06-22T02:31:58;14.70;99.90
20726;DHT22;10524;48.132;8.518;2023-06-22T02:34:25;14.70;99.90
20726;DHT22;10524;48.132;8.518;2023-06-22T02:36:50;14.70;99.90
20726;DHT22;10524;48.132;8.518;2023-06-22T02:39:25;14.80;99.90
20726;DHT22;10524;48.132;8.518;2023-06-22T02:41:52;14.70;99.90
20726;DHT22;10524;48.132;8.518;2023-06-22T02:44:18;14.60;99.90
20726;DHT22;10524;48.132;8.518;2023-06-22T02:46:44;14.60;99.90
20726;DHT22;10524;48.132;8.518;2023-06-22T02:49:10;14.50;99.90
20726;DHT22;10524;48.132;8.518;2023-06-22T02:51:39;14.50;99.90
20726;DHT22;10524;48.132;8.518;2023-06-22T02:54:06;14.50;99.90
20726;DHT22;10524;48.132;8.518;2023-06-22T02:56:31;14.50;99.90
20726;DHT22;10524;48.132;8.518;2023-06-22T02:58:57;14.60;99.90
20726;DHT22;10524;48.132;8.518;2023-06-22T03:01:29;14.70;99.90
20726;DHT22;10524;48.132;8.518;2023-06-22T03:03:58;14.60;99.90
20726;DHT22;10524;48.132;8.518;2023-06-22T03:06:24;14.50;99.90
20726;DHT22;10524;48.132;8.518;2023-06-22T03:09:00;14.50;99.90
20726;DHT22;10524;48.132;8.518;2023-06-22T03:11:26;14.50;99.90
20726;DHT22;10524;48.132;8.518;2023-06-22T03:13:52;14.60;99.90
20726;DHT22;10524;48.132;8.518;2023-06-22T03:16:19;14.60;99.90
20726;DHT22;10524;48.132;8.518;2023-06-22T03:18:44;14.50;99.90
20726;DHT22;10524;48.132;8.518;2023-06-22T03:21:10;14.50;99.90
20726;DHT22;10524;48.132;8.518;2023-06-22T03:23:36;14.40;99.90
20726;DHT22;10524;48.132;8.518;2023-06-22T03:26:02;14.50;99.90
20726;DHT22;10524;48.132;8.518;2023-06-22T03:28:29;14.50;99.90
20726;DHT22;10524;48.132;8.518;2023-06-22T03:30:57;14.50;99.90
20726;DHT22;10524;48.132;8.518;2023-06-22T03:33:23;14.40;99.90
20726;DHT22;10524;48.132;8.518;2023-06-22T03:35:48;14.50;99.90
20726;DHT22;10524;48.132;8.518;2023-06-22T03:38:16;14.40;99.90
20726;DHT22;10524;48.132;8.518;2023-06-22T03:40:41;14.40;99.90
20726;DHT22;10524;48.132;8.518;2023-06-22T03:43:07;14.40;99.90
20726;DHT22;10524;48.132;8.518;2023-06-22T03:45:32;14.30;99.90
20726;DHT22;10524;48.132;8.518;2023-06-22T03:47:58;14.30;99.90
20726;DHT22;10524;48.132;8.518;2023-06-22T03:50:24;14.30;99.90
20726;DHT22;10524;48.132;8.518;2023-06-22T03:52:49;14.40;99.90
20726;DHT22;10524;48.132;8.518;2023-06-22T03:55:19;14.50;99.90
20726;DHT22;10524;48.132;8.518;2023-06-22T03:57:45;14.60;99.90
20726;DHT22;10524;48.132;8.518;2023-06-22T04:00:11;14.70;99.90
20726;DHT22;10524;48.132;8.518;2023-06-22T04:02:36;14.80;99.90
20726;DHT22;10524;48.132;8.518;2023-06-22T04:05:02;14.80;99.90
20726;DHT22;10524;48.132;8.518;2023-06-22T04:07:28;15.00;99.90
20726;DHT22;10524;48.132;8.518;2023-06-22T04:09:53;15.00;99.90
20726;DHT22;10524;48.132;8.518;2023-06-22T04:12:19;15.20;99.90
20726;DHT22;10524;48.132;8.518;2023-06-22T04:14:45;15.40;99.90
20726;DHT22;10524;48.132;8.518;2023-06-22T04:17:10;15.70;99.90
20726;DHT22;10524;48.132;8.518;2023-06-22T04:19:40;15.90;99.90
20726;DHT22;10524;48.132;8.518;2023-06-22T04:22:06;16.00;99.90
20726;DHT22;10524;48.132;8.518;2023-06-22T04:24:33;16.00;99.90
20726;DHT22;10524;48.132;8.518;2023-06-22T04:26:59;16.00;99.90
20726;DHT22;10524;48.132;8.518;2023-06-22T04:29:31;16.00;99.90
20726;DHT22;10524;48.132;8.518;2023-06-22T04:31:57;16.20;99.90
20726;DHT22;10524;48.132;8.518;2023-06-22T04:34:31;16.30;99.90
20726;DHT22;10524;48.132;8.518;2023-06-22T04:36:57;16.60;99.90
20726;DHT22;10524;48.132;8.518;2023-06-22T04:39:23;16.80;99.90
20726;DHT22;10524;48.132;8.518;2023-06-22T04:41:49;17.00;99.90
20726;DHT22;10524;48.132;8.518;2023-06-22T04:44:19;17.20;99.90
20726;DHT22;10524;48.132;8.518;2023-06-22T04:46:52;17.20;99.90
20726;DHT22;10524;48.132;8.518;2023-06-22T04:49:26;17.70;99.90
20726;DHT22;10524;48.132;8.518;2023-06-22T04:51:58;17.60;99.90
20726;DHT22;10524;48.132;8.518;2023-06-22T04:54:25;17.70;99.90
20726;DHT22;10524;48.132;8.518;2023-06-22T04:56:51;18.20;99.90
20726;DHT22;10524;48.132;8.518;2023-06-22T04:59:29;18.70;99.90
20726;DHT22;10524;48.132;8.518;2023-06-22T05:02:00;19.10;99.90
20726;DHT22;10524;48.132;8.518;2023-06-22T05:04:27;19.70;99.90
20726;DHT22;10524;48.132;8.518;2023-06-22T05:06:57;20.50;99.90
20726;DHT22;10524;48.132;8.518;2023-06-22T05:09:23;20.70;99.90
20726;DHT22;10524;48.132;8.518;2023-06-22T05:11:50;20.70;99.90
20726;DHT22;10524;48.132;8.518;2023-06-22T05:14:16;20.40;99.90
20726;DHT22;10524;48.132;8.518;2023-06-22T05:16:42;20.60;99.90
20726;DHT22;10524;48.132;8.518;2023-06-22T05:19:09;21.00;99.90
20726;DHT22;10524;48.132;8.518;2023-06-22T05:21:35;21.70;99.90
20726;DHT22;10524;48.132;8.518;2023-06-22T05:24:00;22.70;99.90
20726;DHT22;10524;48.132;8.518;2023-06-22T05:26:32;22.70;99.90
20726;DHT22;10524;48.132;8.518;2023-06-22T05:28:58;22.40;99.90
20726;DHT22;10524;48.132;8.518;2023-06-22T05:31:24;22.40;99.90
20726;DHT22;10524;48.132;8.518;2023-06-22T05:33:51;22.70;99.90
20726;DHT22;10524;48.132;8.518;2023-06-22T05:36:17;23.00;99.90
20726;DHT22;10524;48.132;8.518;2023-06-22T05:38:45;23.50;99.90
20726;DHT22;10524;48.132;8.518;2023-06-22T05:41:11;23.80;99.90
20726;DHT22;10524;48.132;8.518;2023-06-22T05:43:37;24.10;99.90
20726;DHT22;10524;48.132;8.518;2023-06-22T05:46:04;24.80;99.90
20726;DHT22;10524;48.132;8.518;2023-06-22T05:48:30;24.70;99.90
20726;DHT22;10524;48.132;8.518;2023-06-22T05:50:56;24.60;99.90
20726;DHT22;10524;48.132;8.518;2023-06-22T05:53:21;24.90;99.90
20726;DHT22;10524;48.132;8.518;2023-06-22T05:55:47;25.10;99.90
20726;DHT22;10524;48.132;8.518;2023-06-22T05:58:13;25.40;99.90
20726;DHT22;10524;48.132;8.518;2023-06-22T06:00:39;25.60;99.90
20726;DHT22;10524;48.132;8.518;2023-06-22T06:03:06;26.10;99.90
20726;DHT22;10524;48.132;8.518;2023-06-22T06:05:33;26.80;99.90
20726;DHT22;10524;48.132;8.518;2023-06-22T06:08:03;27.70;99.90
20726;DHT22;10524;48.132;8.518;2023-06-22T06:10:33;28.70;99.90
20726;DHT22;10524;48.132;8.518;2023-06-22T06:12:59;28.80;99.90
20726;DHT22;10524;48.132;8.518;2023-06-22T06:15:27;28.50;99.90
20726;DHT22;10524;48.132;8.518;2023-06-22T06:17:54;28.30;99.90
20726;DHT22;10524;48.132;8.518;2023-06-22T06:20:21;28.10;99.90
20726;DHT22;10524;48.132;8.518;2023-06-22T06:22:48;28.40;99.90
20726;DHT22;10524;48.132;8.518;2023-06-22T06:25:14;29.00;99.90
20726;DHT22;10524;48.132;8.518;2023-06-22T06:27:46;29.10;99.90
20726;DHT22;10524;48.132;8.518;2023-06-22T06:30:13;29.90;99.90
20726;DHT22;10524;48.132;8.518;2023-06-22T06:32:39;30.00;99.90
20726;DHT22;10524;48.132;8.518;2023-06-22T06:35:09;29.90;99.90
20726;DHT22;10524;48.132;8.518;2023-06-22T06:37:44;29.50;99.90
20726;DHT22;10524;48.132;8.518;2023-06-22T06:40:11;30.20;99.90
20726;DHT22;10524;48.132;8.518;2023-06-22T06:42:38;30.20;99.90
20726;DHT22;10524;48.132;8.518;2023-06-22T06:45:06;29.40;99.90
20726;DHT22;10524;48.132;8.518;2023-06-22T06:47:32;29.10;99.90
20726;DHT22;10524;48.132;8.518;2023-06-22T06:49:57;29.60;99.90
20726;DHT22;10524;48.132;8.518;2023-06-22T06:52:23;30.00;99.90
20726;DHT22;10524;48.132;8.518;2023-06-22T06:54:49;31.10;99.90
20726;DHT22;10524;48.132;8.518;2023-06-22T06:57:17;32.00;99.90
20726;DHT22;10524;48.132;8.518;2023-06-22T06:59:43;32.50;99.90
20726;DHT22;10524;48.132;8.518;2023-06-22T07:02:08;31.60;99.90
20726;DHT22;10524;48.132;8.518;2023-06-22T07:04:34;31.10;99.90
20726;DHT22;10524;48.132;8.518;2023-06-22T07:07:01;31.40;99.90
20726;DHT22;10524;48.132;8.518;2023-06-22T07:09:27;32.00;99.90
20726;DHT22;10524;48.132;8.518;2023-06-22T07:11:53;31.50;99.90
20726;DHT22;10524;48.132;8.518;2023-06-22T07:14:18;31.00;99.90
20726;DHT22;10524;48.132;8.518;2023-06-22T07:16:44;29.30;99.90
20726;DHT22;10524;48.132;8.518;2023-06-22T07:19:11;28.50;99.90
20726;DHT22;10524;48.132;8.518;2023-06-22T07:21:37;29.30;99.90
20726;DHT22;10524;48.132;8.518;2023-06-22T07:24:05;30.30;99.90
20726;DHT22;10524;48.132;8.518;2023-06-22T07:26:31;30.40;99.90
20726;DHT22;10524;48.132;8.518;2023-06-22T07:28:57;31.20;99.90
20726;DHT22;10524;48.132;8.518;2023-06-22T07:31:25;31.70;99.90
20726;DHT22;10524;48.132;8.518;2023-06-22T07:33:51;31.00;99.90
20726;DHT22;10524;48.132;8.518;2023-06-22T07:36:17;30.20;99.90
20726;DHT22;10524;48.132;8.518;2023-06-22T07:38:43;30.10;99.90
20726;DHT22;10524;48.132;8.518;2023-06-22T07:41:09;30.30;99.90
20726;DHT22;10524;48.132;8.518;2023-06-22T07:43:34;30.10;99.90
20726;DHT22;10524;48.132;8.518;2023-06-22T07:46:03;29.30;99.90
20726;DHT22;10524;48.132;8.518;2023-06-22T07:48:29;28.40;99.90
20726;DHT22;10524;48.132;8.518;2023-06-22T07:50:55;27.90;99.90
20726;DHT22;10524;48.132;8.518;2023-06-22T07:53:21;28.30;99.90
20726;DHT22;10524;48.132;8.518;2023-06-22T07:55:47;29.80;99.90
20726;DHT22;10524;48.132;8.518;2023-06-22T07:58:13;31.10;99.90
20726;DHT22;10524;48.132;8.518;2023-06-22T08:00:38;30.80;99.90
20726;DHT22;10524;48.132;8.518;2023-06-22T08:03:04;29.80;99.90
20726;DHT22;10524;48.132;8.518;2023-06-22T08:05:31;29.30;99.90
20726;DHT22;10524;48.132;8.518;2023-06-22T08:07:57;30.00;99.90
20726;DHT22;10524;48.132;8.518;2023-06-22T08:10:22;30.60;99.90
20726;DHT22;10524;48.132;8.518;2023-06-22T08:12:48;32.70;99.90
20726;DHT22;10524;48.132;8.518;2023-06-22T08:15:14;34.90;99.90
20726;DHT22;10524;48.132;8.518;2023-06-22T08:17:40;34.30;99.90
20726;DHT22;10524;48.132;8.518;2023-06-22T08:20:07;34.00;99.90
20726;DHT22;10524;48.132;8.518;2023-06-22T08:22:37;34.30;99.90
20726;DHT22;10524;48.132;8.518;2023-06-22T08:25:03;34.20;99.90
20726;DHT22;10524;48.132;8.518;2023-06-22T08:27:30;33.20;99.90
20726;DHT22;10524;48.132;8.518;2023-06-22T08:29:57;33.70;99.90
20726;DHT22;10524;48.132;8.518;2023-06-22T08:32:25;35.30;99.90
20726;DHT22;10524;48.132;8.518;2023-06-22T08:34:53;37.00;99.90
20726;DHT22;10524;48.132;8.518;2023-06-22T08:37:19;36.60;99.90
20726;DHT22;10524;48.132;8.518;2023-06-22T08:39:44;36.60;99.90
20726;DHT22;10524;48.132;8.518;2023-06-22T08:42:10;36.90;99.90
20726;DHT22;10524;48.132;8.518;2023-06-22T08:44:35;36.20;99.90
20726;DHT22;10524;48.132;8.518;2023-06-22T08:47:01;36.70;99.90
20726;DHT22;10524;48.132;8.518;2023-06-22T08:49:27;37.60;99.90
20726;DHT22;10524;48.132;8.518;2023-06-22T08:51:53;38.40;99.90
20726;DHT22;10524;48.132;8.518;2023-06-22T08:54:21;39.50;99.90
20726;DHT22;10524;48.132;8.518;2023-06-22T08:56:47;38.90;99.90
20726;DHT22;10524;48.132;8.518;2023-06-22T08:59:12;37.80;99.90
20726;DHT22;10524;48.132;8.518;2023-06-22T09:01:38;38.90;99.90
20726;DHT22;10524;48.132;8.518;2023-06-22T09:04:04;39.70;99.90
20726;DHT22;10524;48.132;8.518;2023-06-22T09:06:31;40.30;99.90
20726;DHT22;10524;48.132;8.518;2023-06-22T09:08:57;38.60;99.90
20726;DHT22;10524;48.132;8.518;2023-06-22T09:11:25;37.50;99.90
20726;DHT22;10524;48.132;8.518;2023-06-22T09:13:50;36.60;99.90
20726;DHT22;10524;48.132;8.518;2023-06-22T09:16:17;35.10;99.90
20726;DHT22;10524;48.132;8.518;2023-06-22T09:18:46;33.50;99.90
20726;DHT22;10524;48.132;8.518;2023-06-22T09:21:12;33.00;99.90
20726;DHT22;10524;48.132;8.518;2023-06-22T09:23:37;33.30;99.90
20726;DHT22;10524;48.132;8.518;2023-06-22T09:26:03;33.40;99.90
20726;DHT22;10524;48.132;8.518;2023-06-22T09:28:29;34.50;99.90
20726;DHT22;10524;48.132;8.518;2023-06-22T09:30:55;35.40;99.90
20726;DHT22;10524;48.132;8.518;2023-06-22T09:33:24;36.60;99.90
20726;DHT22;10524;48.132;8.518;2023-06-22T09:35:50;37.00;99.90
20726;DHT22;10524;48.132;8.518;2023-06-22T09:38:16;36.80;99.90
20726;DHT22;10524;48.132;8.518;2023-06-22T09:40:42;37.20;99.90
20726;DHT22;10524;48.132;8.518;2023-06-22T09:43:08;37.50;99.90
20726;DHT22;10524;48.132;8.518;2023-06-22T09:45:34;37.40;99.90
20726;DHT22;10524;48.132;8.518;2023-06-22T09:47:59;37.10;99.90
20726;DHT22;10524;48.132;8.518;2023-06-22T09:50:25;36.00;99.90
20726;DHT22;10524;48.132;8.518;2023-06-22T09:52:51;35.40;99.90
20726;DHT22;10524;48.132;8.518;2023-06-22T09:55:20;34.90;99.90
20726;DHT22;10524;48.132;8.518;2023-06-22T09:57:46;34.50;99.90
20726;DHT22;10524;48.132;8.518;2023-06-22T10:00:12;34.30;99.90
20726;DHT22;10524;48.132;8.518;2023-06-22T10:02:40;33.50;99.90
20726;DHT22;10524;48.132;8.518;2023-06-22T10:05:06;33.10;99.90
20726;DHT22;10524;48.132;8.518;2023-06-22T10:07:33;33.30;99.90
20726;DHT22;10524;48.132;8.518;2023-06-22T10:09:58;33.50;99.90
20726;DHT22;10524;48.132;8.518;2023-06-22T10:12:25;32.70;99.90
20726;DHT22;10524;48.132;8.518;2023-06-22T10:14:50;32.20;99.90
20726;DHT22;10524;48.132;8.518;2023-06-22T10:17:16;31.60;99.90
20726;DHT22;10524;48.132;8.518;2023-06-22T10:19:42;31.10;99.90
20726;DHT22;10524;48.132;8.518;2023-06-22T10:22:07;30.70;99.90
20726;DHT22;10524;48.132;8.518;2023-06-22T10:24:33;30.60;99.90
20726;DHT22;10524;48.132;8.518;2023-06-22T10:26:58;30.70;99.90
20726;DHT22;10524;48.132;8.518;2023-06-22T10:29:24;30.50;99.90
20726;DHT22;10524;48.132;8.518;2023-06-22T10:31:50;30.60;99.90
20726;DHT22;10524;48.132;8.518;2023-06-22T10:34:15;30.60;99.90
20726;DHT22;10524;48.132;8.518;2023-06-22T10:36:41;30.60;99.90
20726;DHT22;10524;48.132;8.518;2023-06-22T10:39:07;30.80;99.90
20726;DHT22;10524;48.132;8.518;2023-06-22T10:41:32;30.80;99.90
20726;DHT22;10524;48.132;8.518;2023-06-22T10:43:58;30.80;99.90
20726;DHT22;10524;48.132;8.518;2023-06-22T10:46:25;30.70;99.90
20726;DHT22;10524;48.132;8.518;2023-06-22T10:48:52;30.60;99.90
20726;DHT22;10524;48.132;8.518;2023-06-22T10:51:20;30.40;99.90
20726;DHT22;10524;48.132;8.518;2023-06-22T10:53:45;29.70;99.90
20726;DHT22;10524;48.132;8.518;2023-06-22T10:56:11;29.40;99.90
20726;DHT22;10524;48.132;8.518;2023-06-22T10:58:36;29.30;99.90
20726;DHT22;10524;48.132;8.518;2023-06-22T11:01:02;28.90;99.90
20726;DHT22;10524;48.132;8.518;2023-06-22T11:03:28;28.90;99.90
20726;DHT22;10524;48.132;8.518;2023-06-22T11:05:55;29.30;99.90
20726;DHT22;10524;48.132;8.518;2023-06-22T11:08:21;29.60;99.90
20726;DHT22;10524;48.132;8.518;2023-06-22T11:10:46;29.80;99.90
20726;DHT22;10524;48.132;8.518;2023-06-22T11:13:12;29.80;99.90
20726;DHT22;10524;48.132;8.518;2023-06-22T11:15:38;30.40;99.90
20726;DHT22;10524;48.132;8.518;2023-06-22T11:18:04;30.90;99.90
20726;DHT22;10524;48.132;8.518;2023-06-22T11:20:31;31.10;99.90
20726;DHT22;10524;48.132;8.518;2023-06-22T11:22:58;31.10;99.90
20726;DHT22;10524;48.132;8.518;2023-06-22T11:25:24;31.10;99.90
20726;DHT22;10524;48.132;8.518;2023-06-22T11:27:49;31.10;99.90
20726;DHT22;10524;48.132;8.518;2023-06-22T11:30:16;31.00;99.90
20726;DHT22;10524;48.132;8.518;2023-06-22T11:32:42;30.90;99.90
20726;DHT22;10524;48.132;8.518;2023-06-22T11:35:08;30.50;99.90
20726;DHT22;10524;48.132;8.518;2023-06-22T11:37:33;30.00;99.90
20726;DHT22;10524;48.132;8.518;2023-06-22T11:39:59;29.70;99.90
20726;DHT22;10524;48.132;8.518;2023-06-22T11:42:25;29.50;99.90
20726;DHT22;10524;48.132;8.518;2023-06-22T11:44:50;29.00;99.90
20726;DHT22;10524;48.132;8.518;2023-06-22T11:47:16;28.60;99.90
20726;DHT22;10524;48.132;8.518;2023-06-22T11:49:41;28.50;99.90
20726;DHT22;10524;48.132;8.518;2023-06-22T11:52:07;28.50;99.90
20726;DHT22;10524;48.132;8.518;2023-06-22T11:54:33;28.60;99.90
20726;DHT22;10524;48.132;8.518;2023-06-22T11:56:58;28.60;99.90
20726;DHT22;10524;48.132;8.518;2023-06-22T11:59:24;28.90;99.90
20726;DHT22;10524;48.132;8.518;2023-06-22T12:01:50;29.20;99.90
20726;DHT22;10524;48.132;8.518;2023-06-22T12:04:17;29.70;99.90
20726;DHT22;10524;48.132;8.518;2023-06-22T12:06:43;29.80;99.90
20726;DHT22;10524;48.132;8.518;2023-06-22T12:09:09;29.90;99.90
20726;DHT22;10524;48.132;8.518;2023-06-22T12:11:35;29.90;99.90
20726;DHT22;10524;48.132;8.518;2023-06-22T12:14:01;29.60;99.90
20726;DHT22;10524;48.132;8.518;2023-06-22T12:16:30;29.70;99.90
20726;DHT22;10524;48.132;8.518;2023-06-22T12:18:58;29.80;99.90
20726;DHT22;10524;48.132;8.518;2023-06-22T12:21:23;29.80;99.90
20726;DHT22;10524;48.132;8.518;2023-06-22T12:23:49;29.80;99.90
20726;DHT22;10524;48.132;8.518;2023-06-22T12:26:15;30.00;99.90
20726;DHT22;10524;48.132;8.518;2023-06-22T12:28:41;30.60;99.90
20726;DHT22;10524;48.132;8.518;2023-06-22T12:31:06;31.00;99.90
20726;DHT22;10524;48.132;8.518;2023-06-22T12:33:32;31.30;99.90
20726;DHT22;10524;48.132;8.518;2023-06-22T12:35:57;31.60;99.90
20726;DHT22;10524;48.132;8.518;2023-06-22T12:38:23;32.00;99.90
20726;DHT22;10524;48.132;8.518;2023-06-22T12:40:52;31.70;99.90
20726;DHT22;10524;48.132;8.518;2023-06-22T12:43:18;31.40;99.90
20726;DHT22;10524;48.132;8.518;2023-06-22T12:45:44;31.50;99.90
20726;DHT22;10524;48.132;8.518;2023-06-22T12:48:09;31.60;99.90
20726;DHT22;10524;48.132;8.518;2023-06-22T12:50:35;32.10;99.90
20726;DHT22;10524;48.132;8.518;2023-06-22T12:53:01;32.20;99.90
20726;DHT22;10524;48.132;8.518;2023-06-22T12:55:28;31.80;99.90
20726;DHT22;10524;48.132;8.518;2023-06-22T12:57:54;31.40;99.90
20726;DHT22;10524;48.132;8.518;2023-06-22T13:00:19;31.50;99.90
20726;DHT22;10524;48.132;8.518;2023-06-22T13:02:46;31.10;99.90
20726;DHT22;10524;48.132;8.518;2023-06-22T13:05:12;30.90;99.90
20726;DHT22;10524;48.132;8.518;2023-06-22T13:07:38;30.70;99.90
20726;DHT22;10524;48.132;8.518;2023-06-22T13:10:03;30.60;99.40
20726;DHT22;10524;48.132;8.518;2023-06-22T13:12:29;30.40;99.30
20726;DHT22;10524;48.132;8.518;2023-06-22T13:14:55;30.20;98.00
20726;DHT22;10524;48.132;8.518;2023-06-22T13:17:21;30.10;98.40
20726;DHT22;10524;48.132;8.518;2023-06-22T13:19:46;30.20;98.00
20726;DHT22;10524;48.132;8.518;2023-06-22T13:22:32;30.00;97.90
20726;DHT22;10524;48.132;8.518;2023-06-22T13:24:59;30.00;98.10
20726;DHT22;10524;48.132;8.518;2023-06-22T13:27:24;30.00;98.30
20726;DHT22;10524;48.132;8.518;2023-06-22T13:29:50;30.20;98.50
20726;DHT22;10524;48.132;8.518;2023-06-22T13:32:16;30.30;98.60
20726;DHT22;10524;48.132;8.518;2023-06-22T13:34:42;30.30;98.00
20726;DHT22;10524;48.132;8.518;2023-06-22T13:37:08;30.40;98.80
20726;DHT22;10524;48.132;8.518;2023-06-22T13:39:34;30.60;99.50
20726;DHT22;10524;48.132;8.518;2023-06-22T13:41:59;31.00;99.20
20726;DHT22;10524;48.132;8.518;2023-06-22T13:44:25;31.60;99.10
20726;DHT22;10524;48.132;8.518;2023-06-22T13:46:57;31.90;98.30
20726;DHT22;10524;48.132;8.518;2023-06-22T13:49:22;32.00;98.70
20726;DHT22;10524;48.132;8.518;2023-06-22T13:51:49;31.80;97.80
20726;DHT22;10524;48.132;8.518;2023-06-22T13:54:14;31.60;98.50
20726;DHT22;10524;48.132;8.518;2023-06-22T13:56:40;31.70;98.20
20726;DHT22;10524;48.132;8.518;2023-06-22T13:59:06;32.00;98.20
20726;DHT22;10524;48.132;8.518;2023-06-22T14:01:35;32.20;97.80
20726;DHT22;10524;48.132;8.518;2023-06-22T14:04:01;32.20;98.00
20726;DHT22;10524;48.132;8.518;2023-06-22T14:06:27;32.20;98.90
20726;DHT22;10524;48.132;8.518;2023-06-22T14:08:53;31.50;98.60
20726;DHT22;10524;48.132;8.518;2023-06-22T14:11:19;31.10;99.10
20726;DHT22;10524;48.132;8.518;2023-06-22T14:13:44;30.50;99.90
20726;DHT22;10524;48.132;8.518;2023-06-22T14:16:10;30.10;99.90
20726;DHT22;10524;48.132;8.518;2023-06-22T14:18:36;30.10;99.90
20726;DHT22;10524;48.132;8.518;2023-06-22T14:21:02;30.00;99.90
20726;DHT22;10524;48.132;8.518;2023-06-22T14:23:27;30.00;99.90
20726;DHT22;10524;48.132;8.518;2023-06-22T14:25:53;30.10;99.90
20726;DHT22;10524;48.132;8.518;2023-06-22T14:28:18;30.40;99.90
20726;DHT22;10524;48.132;8.518;2023-06-22T14:30:44;30.60;99.90
20726;DHT22;10524;48.132;8.518;2023-06-22T14:33:10;30.70;99.90
20726;DHT22;10524;48.132;8.518;2023-06-22T14:35:36;31.10;99.90
20726;DHT22;10524;48.132;8.518;2023-06-22T14:38:02;31.50;99.90
20726;DHT22;10524;48.132;8.518;2023-06-22T14:40:27;31.20;99.90
20726;DHT22;10524;48.132;8.518;2023-06-22T14:42:53;30.90;99.90
20726;DHT22;10524;48.132;8.518;2023-06-22T14:45:19;30.70;99.90
20726;DHT22;10524;48.132;8.518;2023-06-22T14:47:44;30.20;99.90
20726;DHT22;10524;48.132;8.518;2023-06-22T14:50:10;30.00;99.90
20726;DHT22;10524;48.132;8.518;2023-06-22T14:52:36;29.40;99.90
20726;DHT22;10524;48.132;8.518;2023-06-22T14:55:02;29.00;99.90
20726;DHT22;10524;48.132;8.518;2023-06-22T14:57:28;28.70;99.90
20726;DHT22;10524;48.132;8.518;2023-06-22T14:59:53;28.30;99.90
20726;DHT22;10524;48.132;8.518;2023-06-22T15:02:20;28.20;99.90
20726;DHT22;10524;48.132;8.518;2023-06-22T15:04:46;28.00;99.90
20726;DHT22;10524;48.132;8.518;2023-06-22T15:07:12;27.80;99.90
20726;DHT22;10524;48.132;8.518;2023-06-22T15:09:38;27.60;99.90
20726;DHT22;10524;48.132;8.518;2023-06-22T15:12:07;27.90;99.90
20726;DHT22;10524;48.132;8.518;2023-06-22T15:14:41;28.00;99.90
20726;DHT22;10524;48.132;8.518;2023-06-22T15:17:08;28.20;99.90
20726;DHT22;10524;48.132;8.518;2023-06-22T15:19:39;28.50;99.90
20726;DHT22;10524;48.132;8.518;2023-06-22T15:22:06;28.90;99.90
20726;DHT22;10524;48.132;8.518;2023-06-22T15:24:32;29.00;99.90
20726;DHT22;10524;48.132;8.518;2023-06-22T15:26:58;28.90;99.90
20726;DHT22;10524;48.132;8.518;2023-06-22T15:29:24;29.00;99.90
20726;DHT22;10524;48.132;8.518;2023-06-22T15:31:53;28.90;99.90
20726;DHT22;10524;48.132;8.518;2023-06-22T15:34:19;28.80;99.90